Terminal Aerodrome Forecast
Issued by NWS Burlington, VT

Home | Current Version | Previous Version | Text Only | Print | Product List | Glossary On
Versions: 1 2 3 4 5 6 7 8 9 10 11 12 13 14 15 16 17 18
657
FTUS41 KBTV 052320
TAFBTV
TAF
KBTV 052320Z 0600/0624 33008KT P6SM FEW140
     FM060600 VRB03KT P6SM BKN045
     FM061300 19008KT P6SM BKN045
     FM062000 21011G18KT P6SM BKN035=

USA.gov is the U.S. government's official web portal to all federal, state and local government web resources and services.